createdAt,value
2018-03-22T00:01:07.307Z,101737.44
2018-03-22T00:03:34.830Z,101740.52
2018-03-22T00:06:02.413Z,101734.78
2018-03-22T00:08:29.964Z,101733.91
2018-03-22T00:10:57.493Z,101736.14
2018-03-22T00:13:25.018Z,101733.47
2018-03-22T00:15:52.658Z,101726.84
2018-03-22T00:18:20.185Z,101726.83
2018-03-22T00:20:47.706Z,101720.66
2018-03-22T00:23:15.231Z,101721.52
2018-03-22T00:25:42.760Z,101717.55
2018-03-22T00:28:10.356Z,101706.04
2018-03-22T00:30:37.912Z,101704.30
2018-03-22T00:33:05.442Z,101695.02
2018-03-22T00:35:33.071Z,101693.25
2018-03-22T00:38:00.592Z,101688.81
2018-03-22T00:40:28.125Z,101685.70
2018-03-22T00:42:55.722Z,101683.06
2018-03-22T00:45:23.249Z,101681.74
2018-03-22T00:47:50.836Z,101678.64
2018-03-22T00:50:18.361Z,101669.80
2018-03-22T00:52:45.957Z,101665.39
2018-03-22T00:55:13.563Z,101666.27
2018-03-22T00:57:41.171Z,101656.96
2018-03-22T01:00:08.736Z,101661.41
2018-03-22T01:02:36.295Z,101657.41
2018-03-22T01:05:03.860Z,101650.78
2018-03-22T01:07:31.386Z,101650.34
2018-03-22T01:09:58.905Z,101651.22
2018-03-22T01:12:26.424Z,101644.14
2018-03-22T01:14:54.100Z,101648.13
2018-03-22T01:17:21.624Z,101635.30
2018-03-22T01:19:49.217Z,101630.44
2018-03-22T01:22:16.733Z,101618.05
2018-03-22T01:24:44.267Z,101611.00
2018-03-22T01:27:11.802Z,101605.68
2018-03-22T01:29:39.326Z,101605.67
2018-03-22T01:32:06.918Z,101592.42
2018-03-22T01:34:34.442Z,101591.97
2018-03-22T01:37:01.961Z,101577.83
2018-03-22T01:39:29.491Z,101578.75
2018-03-22T01:41:57.009Z,101571.21
2018-03-22T01:44:24.618Z,101574.30
2018-03-22T01:46:52.160Z,101567.69
2018-03-22T01:49:19.682Z,101565.91
2018-03-22T01:51:47.298Z,101562.82
2018-03-22T01:54:14.822Z,101553.53
2018-03-22T01:56:42.381Z,101537.65
2018-03-22T01:59:09.964Z,101545.16
2018-03-22T02:01:37.501Z,101532.35
2018-03-22T02:04:05.029Z,101537.19
2018-03-22T02:06:32.562Z,101529.70
2018-03-22T02:09:00.200Z,101518.20
2018-03-22T02:11:27.776Z,101510.70
2018-03-22T02:13:55.335Z,101505.41
2018-03-22T02:16:22.864Z,101498.33
2018-03-22T02:18:50.456Z,101496.58
2018-03-22T02:21:17.981Z,101489.06
2018-03-22T02:23:45.502Z,101483.77
2018-03-22T02:26:13.027Z,101476.24
2018-03-22T02:28:40.556Z,101480.22
2018-03-22T02:31:08.095Z,101471.82
2018-03-22T02:33:35.714Z,101467.86
2018-03-22T02:36:03.241Z,101462.98
2018-03-22T02:38:30.834Z,101465.66
2018-03-22T02:40:58.394Z,101469.62
2018-03-22T02:43:25.922Z,101452.41
2018-03-22T02:45:53.481Z,101450.20
2018-03-22T02:48:21.023Z,101447.56
2018-03-22T02:50:48.570Z,101438.73
2018-03-22T02:53:16.191Z,101444.46
2018-03-22T02:55:43.767Z,101432.11
2018-03-22T02:58:11.423Z,101420.63
2018-03-22T03:00:38.952Z,101414.01
2018-03-22T03:03:06.484Z,101414.42
2018-03-22T03:05:34.032Z,101416.20
2018-03-22T03:08:01.657Z,101406.04
2018-03-22T03:10:29.505Z,101400.30
2018-03-22T03:12:57.038Z,101396.34
2018-03-22T03:15:24.579Z,101393.70
2018-03-22T03:17:52.103Z,101395.03
2018-03-22T03:20:19.635Z,101379.11
2018-03-22T03:22:47.171Z,101383.97
2018-03-22T03:25:14.755Z,101372.95
2018-03-22T03:27:42.293Z,101369.41
2018-03-22T03:30:09.904Z,101362.78
2018-03-22T03:32:37.433Z,101352.20
2018-03-22T03:35:04.962Z,101347.31
2018-03-22T03:37:32.481Z,101339.84
2018-03-22T03:40:00.014Z,101336.73
2018-03-22T03:42:27.600Z,101329.24
2018-03-22T03:44:55.130Z,101332.32
2018-03-22T03:47:22.659Z,101331.44
2018-03-22T03:49:50.186Z,101320.41
2018-03-22T03:52:17.711Z,101311.14
2018-03-22T03:54:45.234Z,101309.36
2018-03-22T03:57:12.752Z,101304.52
2018-03-22T03:59:40.284Z,101295.67
2018-03-22T04:02:07.848Z,101295.70
2018-03-22T04:04:35.388Z,101298.78
2018-03-22T04:07:02.924Z,101297.45
2018-03-22T04:09:30.453Z,101291.70
2018-03-22T04:11:57.980Z,101285.11
2018-03-22T04:14:25.574Z,101271.86
2018-03-22T04:16:53.098Z,101260.81
2018-03-22T04:19:20.693Z,101260.39
2018-03-22T04:21:48.218Z,101253.78
2018-03-22T04:24:15.814Z,101251.55
2018-03-22T04:26:43.329Z,101241.86
2018-03-22T04:29:10.898Z,101241.44
2018-03-22T04:31:38.419Z,101236.13
2018-03-22T04:34:05.951Z,101239.22
2018-03-22T04:36:33.482Z,101234.34
2018-03-22T04:39:01.004Z,101234.78
2018-03-22T04:41:28.531Z,101240.53
2018-03-22T04:43:56.057Z,101242.73
2018-03-22T04:46:23.582Z,101234.74
2018-03-22T04:48:51.113Z,101225.93
2018-03-22T04:51:18.638Z,101229.05
2018-03-22T04:53:46.165Z,101222.88
2018-03-22T04:56:13.686Z,101222.44
2018-03-22T04:58:41.210Z,101211.40
2018-03-22T05:01:08.829Z,101212.28
2018-03-22T05:03:36.432Z,101210.48
2018-03-22T05:06:04.058Z,101200.41
2018-03-22T05:08:31.685Z,101201.27
2018-03-22T05:10:59.210Z,101196.83
2018-03-22T05:13:26.736Z,101190.23
2018-03-22T05:15:54.356Z,101188.00
2018-03-22T05:18:21.876Z,101187.56
2018-03-22T05:20:49.424Z,101185.34
2018-03-22T05:23:16.948Z,101188.87
2018-03-22T05:25:45.362Z,101185.30
2018-03-22T05:28:12.888Z,101186.66
2018-03-22T05:30:40.411Z,101175.17
2018-03-22T05:33:07.933Z,101185.32
2018-03-22T05:35:35.465Z,101188.42
2018-03-22T05:38:02.990Z,101193.27
2018-03-22T05:40:30.522Z,101183.55
2018-03-22T05:42:58.040Z,101177.77
2018-03-22T05:45:25.571Z,101178.69
2018-03-22T05:47:53.117Z,101179.13
2018-03-22T05:50:20.645Z,101180.87
2018-03-22T05:52:48.283Z,101172.91
2018-03-22T05:55:15.843Z,101171.58
2018-03-22T05:57:43.403Z,101166.73
2018-03-22T06:00:10.981Z,101158.78
2018-03-22T06:02:38.626Z,101153.88
2018-03-22T06:05:06.188Z,101148.16
2018-03-22T06:07:33.726Z,101133.11
2018-03-22T06:10:01.259Z,101125.58
2018-03-22T06:12:28.901Z,101121.19
2018-03-22T06:14:56.421Z,101101.73
2018-03-22T06:17:23.976Z,101099.05
2018-03-22T06:19:51.499Z,101092.88
2018-03-22T06:22:19.034Z,101093.80
2018-03-22T06:24:46.549Z,101084.47
2018-03-22T06:27:14.078Z,101078.27
2018-03-22T06:29:41.610Z,101074.28
2018-03-22T06:32:09.141Z,101073.33
2018-03-22T06:34:36.685Z,101066.69
2018-03-22T06:37:04.262Z,101062.32
2018-03-22T06:39:31.795Z,101057.95
2018-03-22T06:41:59.319Z,101055.73
2018-03-22T06:44:26.854Z,101047.81
2018-03-22T06:46:54.381Z,101040.27
2018-03-22T06:49:21.959Z,101044.34
2018-03-22T06:51:49.488Z,101040.35
2018-03-22T06:54:17.092Z,101037.69
2018-03-22T06:56:44.624Z,101032.45
2018-03-22T06:59:12.154Z,101023.28
2018-03-22T07:01:39.773Z,101014.91
2018-03-22T07:04:07.421Z,101021.98
2018-03-22T07:06:34.949Z,101011.94
2018-03-22T07:09:02.549Z,101010.11
2018-03-22T07:11:30.070Z,101008.41
2018-03-22T07:13:57.596Z,101007.58
2018-03-22T07:16:25.168Z,101005.89
2018-03-22T07:18:52.715Z,101003.23
2018-03-22T07:21:20.246Z,101006.32
2018-03-22T07:23:47.769Z,100996.61
2018-03-22T07:26:15.303Z,100994.00
2018-03-22T07:28:42.840Z,100983.44
2018-03-22T07:31:10.405Z,100968.94
2018-03-22T07:33:37.914Z,100972.91
2018-03-22T07:36:05.434Z,100963.16
2018-03-22T07:38:32.960Z,100952.16
2018-03-22T07:41:00.481Z,100948.64
2018-03-22T07:43:33.507Z,100945.06
2018-03-22T07:46:01.039Z,100948.61
2018-03-22T07:48:28.553Z,100937.55
2018-03-22T07:50:56.086Z,100936.70
2018-03-22T07:53:23.643Z,100927.02
2018-03-22T07:55:51.177Z,100923.81
2018-03-22T07:58:18.690Z,100928.66
2018-03-22T08:00:46.221Z,100926.94
2018-03-22T08:03:15.741Z,100925.50
2018-03-22T08:05:43.268Z,100912.28
2018-03-22T08:08:10.789Z,100910.09
2018-03-22T08:10:38.343Z,100910.53
2018-03-22T08:13:05.868Z,100904.36
2018-03-22T08:15:33.425Z,100897.72
2018-03-22T08:18:00.953Z,100899.05
2018-03-22T08:20:28.541Z,100895.11
2018-03-22T08:22:56.071Z,100889.84
2018-03-22T08:25:23.600Z,100885.44
2018-03-22T08:27:51.138Z,100888.97
2018-03-22T08:30:18.666Z,100889.77
2018-03-22T08:32:46.193Z,100886.36
2018-03-22T08:35:13.800Z,100882.40
2018-03-22T08:37:41.325Z,100885.38
2018-03-22T08:40:08.880Z,100880.01
2018-03-22T08:42:36.455Z,100874.65
2018-03-22T08:45:03.974Z,100872.60
2018-03-22T08:47:31.601Z,100873.34
2018-03-22T08:49:59.133Z,100873.33
2018-03-22T08:52:26.752Z,100874.81
2018-03-22T08:54:54.296Z,100872.05
2018-03-22T08:57:21.809Z,100869.37
2018-03-22T08:59:49.333Z,100867.16
2018-03-22T09:02:16.956Z,100864.47
2018-03-22T09:04:44.491Z,100860.87
2018-03-22T09:07:12.078Z,100859.16
2018-03-22T09:09:39.646Z,100853.93
2018-03-22T09:12:07.167Z,100843.33
2018-03-22T09:14:34.756Z,100833.52
2018-03-22T09:17:02.390Z,100832.60
2018-03-22T09:19:29.918Z,100837.02
2018-03-22T09:21:57.446Z,100829.97
2018-03-22T09:24:25.105Z,100825.98
2018-03-22T09:26:58.300Z,100825.23
2018-03-22T09:29:25.823Z,100817.31
2018-03-22T09:31:53.382Z,100817.67
2018-03-22T09:34:20.906Z,100812.01
2018-03-22T09:36:48.434Z,100809.81
2018-03-22T09:39:15.961Z,100803.23
2018-03-22T09:41:43.574Z,100808.98
2018-03-22T09:44:11.119Z,100805.36
2018-03-22T09:46:38.638Z,100800.07
2018-03-22T09:49:06.161Z,100800.49
2018-03-22T09:51:33.798Z,100790.91
2018-03-22T09:54:01.321Z,100795.25
2018-03-22T09:56:28.879Z,100799.20
2018-03-22T09:58:56.410Z,100796.20
2018-03-22T10:01:23.939Z,100789.14
2018-03-22T10:03:51.600Z,100785.98
2018-03-22T10:06:19.119Z,100790.42
2018-03-22T10:08:46.716Z,100787.91
2018-03-22T10:11:14.261Z,100786.56
2018-03-22T10:13:41.789Z,100787.47
2018-03-22T10:16:09.317Z,100775.55
2018-03-22T10:18:36.854Z,100780.25
2018-03-22T10:21:04.419Z,100778.08
2018-03-22T10:23:31.941Z,100782.11
2018-03-22T10:25:59.491Z,100777.58
2018-03-22T10:28:27.018Z,100768.84
2018-03-22T10:30:54.552Z,100769.20
2018-03-22T10:33:22.109Z,100770.94
2018-03-22T10:35:49.641Z,100768.95
2018-03-22T10:38:17.182Z,100768.16
2018-03-22T10:40:44.719Z,100766.37
2018-03-22T10:43:12.249Z,100766.25
2018-03-22T10:45:39.810Z,100761.48
2018-03-22T10:48:07.373Z,100757.88
2018-03-22T10:50:34.895Z,100752.61
2018-03-22T10:53:02.592Z,100749.01
2018-03-22T10:55:30.249Z,100748.58
2018-03-22T10:57:57.808Z,100748.64
2018-03-22T11:00:30.994Z,100745.94
2018-03-22T11:06:02.194Z,100743.20
2018-03-22T11:08:29.753Z,100731.41
2018-03-22T11:10:57.288Z,100735.27
2018-03-22T11:13:24.820Z,100733.92
2018-03-22T11:15:52.942Z,100723.34
2018-03-22T11:18:20.483Z,100720.20
2018-03-22T11:20:48.006Z,100717.70
2018-03-22T11:23:15.542Z,100718.76
2018-03-22T11:25:43.211Z,100712.69
2018-03-22T11:28:10.751Z,100712.22
2018-03-22T11:30:38.467Z,100703.41
2018-03-22T11:33:06.047Z,100699.44
2018-03-22T11:35:33.610Z,100705.66
2018-03-22T11:38:01.126Z,100699.79
2018-03-22T11:40:28.722Z,100694.98
2018-03-22T11:42:56.291Z,100689.11
2018-03-22T11:45:23.814Z,100691.41
2018-03-22T11:47:51.362Z,100694.07
2018-03-22T11:50:18.976Z,100684.33
2018-03-22T11:52:46.542Z,100686.39
2018-03-22T11:55:14.073Z,100679.02
2018-03-22T11:57:41.648Z,100678.47
2018-03-22T12:00:09.223Z,100681.11
2018-03-22T12:02:36.741Z,100674.45
2018-03-22T12:05:04.330Z,100671.29
2018-03-22T12:07:31.869Z,100670.39
2018-03-22T12:09:59.459Z,100668.69
2018-03-22T12:12:26.996Z,100675.06
2018-03-22T12:14:54.670Z,100666.70
2018-03-22T12:17:22.204Z,100669.70
2018-03-22T12:19:49.732Z,100670.16
2018-03-22T12:22:17.255Z,100669.16
2018-03-22T12:24:44.779Z,100657.70
2018-03-22T12:27:12.369Z,100659.44
2018-03-22T12:29:39.898Z,100648.38
2018-03-22T12:32:07.437Z,100654.67
2018-03-22T12:34:34.976Z,100649.69
2018-03-22T12:37:02.508Z,100646.87
2018-03-22T12:39:30.036Z,100636.30
2018-03-22T12:41:57.657Z,100640.75
2018-03-22T12:44:25.203Z,100636.30
2018-03-22T12:46:52.758Z,100634.80
2018-03-22T12:49:20.422Z,100636.48
2018-03-22T12:51:48.078Z,100623.06
2018-03-22T12:54:15.606Z,100632.61
2018-03-22T12:56:43.601Z,100629.41
2018-03-22T12:59:11.128Z,100629.72
2018-03-22T13:01:38.657Z,100627.33
2018-03-22T13:04:06.185Z,100628.67
2018-03-22T13:06:33.714Z,100626.48
2018-03-22T13:09:01.235Z,100629.12
2018-03-22T13:11:28.864Z,100622.73
2018-03-22T13:13:56.393Z,100624.58
2018-03-22T13:16:23.985Z,100629.41
2018-03-22T13:18:51.514Z,100625.39
2018-03-22T13:21:19.040Z,100624.97
2018-03-22T13:23:46.662Z,100625.88
2018-03-22T13:26:14.194Z,100611.96
2018-03-22T13:28:41.715Z,100622.56
2018-03-22T13:31:09.246Z,100620.07
2018-03-22T13:33:36.917Z,100611.98
2018-03-22T13:36:04.563Z,100618.12
2018-03-22T13:38:32.093Z,100615.06
2018-03-22T13:40:59.620Z,100623.05
2018-03-22T13:43:27.142Z,100616.59
2018-03-22T13:45:54.675Z,100616.16
2018-03-22T13:48:22.230Z,100609.47
2018-03-22T13:50:49.759Z,100612.92
2018-03-22T13:53:17.279Z,100614.69
2018-03-22T13:55:44.805Z,100615.04
2018-03-22T13:58:12.330Z,100610.08
2018-03-22T14:00:39.885Z,100610.77
2018-03-22T14:03:07.515Z,100617.00
2018-03-22T14:05:35.079Z,100615.20
2018-03-22T14:08:02.619Z,100613.84
2018-03-22T14:10:30.197Z,100608.60
2018-03-22T14:12:57.747Z,100617.44
2018-03-22T14:15:25.287Z,100608.08
2018-03-22T14:17:52.812Z,100611.15
2018-03-22T14:20:20.336Z,100607.67
2018-03-22T14:22:47.862Z,100606.92
2018-03-22T14:25:15.380Z,100602.18
2018-03-22T14:27:42.914Z,100595.94
2018-03-22T14:30:10.437Z,100596.83
2018-03-22T14:32:37.960Z,100588.80
2018-03-22T14:35:05.527Z,100590.27
2018-03-22T14:37:33.055Z,100587.00
2018-03-22T14:40:01.637Z,100578.42
2018-03-22T14:42:29.162Z,100581.52
2018-03-22T14:44:56.677Z,100575.30
2018-03-22T14:47:24.196Z,100583.70
2018-03-22T14:49:51.738Z,100576.27
2018-03-22T14:52:19.253Z,100578.42
2018-03-22T14:54:46.789Z,100577.62
2018-03-22T14:57:14.324Z,100574.08
2018-03-22T14:59:41.843Z,100573.55
2018-03-22T15:02:09.389Z,100582.14
2018-03-22T15:04:36.929Z,100579.03
2018-03-22T15:07:04.456Z,100580.08
2018-03-22T15:09:31.976Z,100577.65
2018-03-22T15:11:59.502Z,100577.73
2018-03-22T15:14:27.046Z,100573.64
2018-03-22T15:16:54.588Z,100576.45
2018-03-22T15:19:22.121Z,100571.13
2018-03-22T15:21:49.644Z,100573.81
2018-03-22T15:24:17.172Z,100575.17
2018-03-22T15:26:44.692Z,100569.34
2018-03-22T15:29:12.217Z,100573.78
2018-03-22T15:31:39.777Z,100567.15
2018-03-22T15:34:07.306Z,100562.14
2018-03-22T15:36:34.874Z,100565.28
2018-03-22T15:39:02.390Z,100570.52
2018-03-22T15:41:29.919Z,100567.80
2018-03-22T15:43:57.450Z,100560.41
2018-03-22T15:46:24.987Z,100569.39
2018-03-22T15:48:52.520Z,100570.98
2018-03-22T15:51:20.155Z,100569.68
2018-03-22T15:53:47.697Z,100571.84
2018-03-22T15:56:15.239Z,100565.77
2018-03-22T15:58:42.842Z,100566.20
2018-03-22T16:01:10.372Z,100565.66
2018-03-22T16:03:37.885Z,100567.89
2018-03-22T16:06:05.954Z,100568.87
2018-03-22T16:08:33.493Z,100576.14
2018-03-22T16:11:01.034Z,100572.22
2018-03-22T16:13:28.605Z,100577.16
2018-03-22T16:15:56.124Z,100574.52
2018-03-22T16:18:23.654Z,100574.45
2018-03-22T16:20:51.183Z,100576.14
2018-03-22T16:23:18.706Z,100580.20
2018-03-22T16:25:46.280Z,100575.27
2018-03-22T16:28:13.793Z,100574.05
2018-03-22T16:30:41.332Z,100578.59
2018-03-22T16:33:08.871Z,100574.09
2018-03-22T16:35:36.385Z,100573.63
2018-03-22T16:38:03.909Z,100568.41
2018-03-22T16:40:31.432Z,100574.33
2018-03-22T16:42:59.024Z,100572.30
2018-03-22T16:45:26.582Z,100570.98
2018-03-22T16:47:54.105Z,100570.97
2018-03-22T16:50:21.638Z,100565.72
2018-03-22T18:14:46.362Z,100586.91
2018-03-22T18:17:13.919Z,100590.36
2018-03-22T18:19:41.451Z,100593.83
2018-03-22T18:22:09.044Z,100595.52
2018-03-22T18:24:36.574Z,100584.10
2018-03-22T18:27:04.483Z,100593.73
2018-03-22T18:29:32.041Z,100588.41
2018-03-22T18:31:59.568Z,100583.38
2018-03-22T18:34:27.147Z,100580.80
2018-03-22T18:36:54.703Z,100581.20
2018-03-22T18:39:22.222Z,100578.18
2018-03-22T18:41:49.756Z,100577.71
2018-03-22T18:44:17.275Z,100577.56
2018-03-22T18:46:44.814Z,100579.78
2018-03-22T18:49:12.336Z,100579.37
2018-03-22T18:51:39.871Z,100576.29
2018-03-22T18:54:07.421Z,100574.79
2018-03-22T18:56:34.978Z,100575.20
2018-03-22T18:59:02.497Z,100577.86
2018-03-22T19:01:30.031Z,100583.18
2018-03-22T19:03:57.563Z,100577.03
2018-03-22T19:06:25.122Z,100579.70
2018-03-22T19:08:52.646Z,100574.33
2018-03-22T19:11:20.174Z,100569.91
2018-03-22T19:13:47.747Z,100568.12
2018-03-22T19:16:15.360Z,100566.36
2018-03-22T19:18:42.889Z,100558.84
2018-03-22T19:21:10.413Z,100563.73
2018-03-22T19:23:38.035Z,100555.17
2018-03-22T19:26:05.569Z,100553.81
2018-03-22T19:28:33.093Z,100565.30
2018-03-22T19:31:00.721Z,100566.56
2018-03-22T19:33:28.245Z,100562.07
2018-03-22T19:35:55.835Z,100564.34
2018-03-22T19:38:23.400Z,100563.73
2018-03-22T19:40:50.925Z,100569.98
2018-03-22T19:43:18.454Z,100564.16
2018-03-22T19:45:46.017Z,100569.88
2018-03-22T19:48:13.539Z,100572.55
2018-03-22T19:50:41.067Z,100568.16
2018-03-22T19:53:08.598Z,100569.47
2018-03-22T19:55:36.118Z,100568.02
2018-03-22T19:58:03.661Z,100574.30
2018-03-22T20:00:31.185Z,100573.33
2018-03-22T20:02:58.726Z,100574.73
2018-03-22T20:05:26.312Z,100577.45
2018-03-22T20:07:53.937Z,100575.19
2018-03-22T20:10:21.461Z,100570.23
2018-03-22T20:12:48.993Z,100565.86
2018-03-22T20:15:16.557Z,100573.77
2018-03-22T20:17:44.156Z,100570.13
2018-03-22T20:20:11.683Z,100570.12
2018-03-22T20:22:39.277Z,100573.55
2018-03-22T20:25:06.802Z,100578.91
2018-03-22T20:27:34.331Z,100571.40
2018-03-22T20:30:01.959Z,100583.40
2018-03-22T20:32:29.485Z,100571.36
2018-03-22T20:34:57.015Z,100577.52
2018-03-22T20:37:24.563Z,100577.89
2018-03-22T20:39:52.970Z,100579.64
2018-03-22T20:42:21.334Z,100576.48
2018-03-22T20:44:48.951Z,100569.45
2018-03-22T20:47:16.619Z,100574.66
2018-03-22T20:49:44.146Z,100577.38
2018-03-22T20:52:11.672Z,100574.61
2018-03-22T20:54:39.298Z,100574.56
2018-03-22T20:57:06.860Z,100574.56
2018-03-22T20:59:34.391Z,100568.84
2018-03-22T21:02:01.978Z,100566.20
2018-03-22T21:04:29.538Z,100562.22
2018-03-22T21:06:57.082Z,100570.89
2018-03-22T21:09:24.613Z,100572.11
2018-03-22T21:11:52.141Z,100568.22
2018-03-22T21:14:19.670Z,100568.67
2018-03-22T21:16:47.201Z,100570.39
2018-03-22T21:19:14.734Z,100569.87
2018-03-22T21:21:42.267Z,100569.76
2018-03-22T21:24:09.925Z,100568.89
2018-03-22T21:26:37.445Z,100575.31
2018-03-22T21:29:05.002Z,100575.44
2018-03-22T21:31:32.529Z,100574.59
2018-03-22T21:34:00.057Z,100566.03
2018-03-22T21:36:27.594Z,100567.47
2018-03-22T21:38:55.160Z,100563.79
2018-03-22T21:41:22.681Z,100560.80
2018-03-22T21:44:02.103Z,100559.28
2018-03-22T21:46:29.642Z,100561.48
2018-03-22T21:48:57.285Z,100567.27
2018-03-22T21:51:24.910Z,100558.31
2018-03-22T21:53:52.500Z,100558.64
2018-03-22T21:56:20.032Z,100565.22
2018-03-22T21:58:47.652Z,100564.47
2018-03-22T22:01:15.291Z,100559.98
2018-03-22T22:03:42.889Z,100557.34
2018-03-22T22:06:10.416Z,100557.36
2018-03-22T22:08:37.949Z,100564.81
2018-03-22T22:11:05.491Z,100564.85
2018-03-22T22:13:33.042Z,100570.23
2018-03-22T22:16:00.582Z,100567.52
2018-03-22T22:18:28.110Z,100570.61
2018-03-22T22:20:55.648Z,100572.90
2018-03-22T22:23:23.239Z,100572.46
2018-03-22T22:25:51.968Z,100571.16
2018-03-22T22:28:19.506Z,100574.34
2018-03-22T22:30:47.050Z,100573.83
2018-03-22T22:33:14.575Z,100568.13
2018-03-22T22:35:42.168Z,100565.02
2018-03-22T22:38:09.716Z,100566.23
2018-03-22T22:40:37.258Z,100566.73
2018-03-22T22:43:04.810Z,100562.83
2018-03-22T22:45:33.162Z,100559.27
2018-03-22T22:48:00.724Z,100558.20
2018-03-22T22:50:28.281Z,100557.62
2018-03-22T22:52:55.815Z,100552.53
2018-03-22T22:55:23.429Z,100556.81
2018-03-22T22:57:50.963Z,100548.95
2018-03-22T23:00:18.519Z,100549.41
2018-03-22T23:02:46.055Z,100551.91
2018-03-22T23:05:13.581Z,100546.57
2018-03-22T23:07:41.162Z,100550.06
2018-03-22T23:10:08.689Z,100548.27
2018-03-22T23:12:36.216Z,100553.24
2018-03-22T23:15:03.762Z,100548.02
2018-03-22T23:17:31.324Z,100547.49
2018-03-22T23:19:59.234Z,100552.64
2018-03-22T23:22:26.763Z,100547.34
2018-03-22T23:24:54.284Z,100542.79
2018-03-22T23:27:21.811Z,100546.13
2018-03-22T23:29:49.405Z,100541.22
2018-03-22T23:32:16.950Z,100536.82
2018-03-22T23:34:44.500Z,100538.11
2018-03-22T23:37:12.025Z,100538.20
2018-03-22T23:39:39.582Z,100532.53
2018-03-22T23:42:07.102Z,100533.34
2018-03-22T23:44:34.629Z,100536.00
2018-03-22T23:47:02.179Z,100541.92
2018-03-22T23:49:29.703Z,100537.40
2018-03-22T23:51:57.240Z,100534.30
2018-03-22T23:54:24.766Z,100530.64
2018-03-22T23:56:52.366Z,100531.53
2018-03-22T23:59:19.920Z,100526.27
